Time;durP1;ratioP1;P1;durP2;ratioP2;P2;SDS_P1;SDS_P2;PMS_P1;PMS_P2;Temp;Humidity;BMP_temperature;BMP_pressure;BME280_temperature;BME280_humidity;BME280_pressure;Samples;Min_cycle;Max_cycle;Signal;HPM_P1;HPM_P2
2023/12/12 00:00:45;;;;;;;18.40;9.55;;;8.10;99.90;;;;;;5073550;28;20407;-83
2023/12/12 00:03:12;;;;;;;19.92;9.68;;;8.10;99.90;;;;;;5058311;28;20471;-83
2023/12/12 00:05:38;;;;;;;15.45;8.57;;;8.10;99.90;;;;;;5079366;28;20037;-81
2023/12/12 00:08:05;;;;;;;16.15;8.80;;;8.10;99.90;;;;;;5059144;28;20039;-82
2023/12/12 00:10:31;;;;;;;20.30;9.95;;;8.10;99.90;;;;;;5067438;28;20039;-82
2023/12/12 00:12:58;;;;;;;21.00;9.32;;;8.10;99.90;;;;;;5090744;28;20600;-82
2023/12/12 00:15:25;;;;;;;18.58;9.50;;;8.00;99.90;;;;;;5081881;28;20036;-82
2023/12/12 00:17:51;;;;;;;17.35;9.77;;;8.00;99.90;;;;;;5062404;28;20066;-81
2023/12/12 00:20:17;;;;;;;15.68;9.35;;;8.00;99.90;;;;;;5103393;27;20036;-81
2023/12/12 00:22:44;;;;;;;18.10;9.38;;;7.90;99.90;;;;;;5068399;28;20331;-79
2023/12/12 00:25:10;;;;;;;18.52;9.27;;;7.90;99.90;;;;;;5070574;28;20048;-78
2023/12/12 00:27:36;;;;;;;17.58;9.52;;;7.90;99.90;;;;;;5092347;28;20576;-80
2023/12/12 00:30:03;;;;;;;18.60;11.15;;;7.90;99.90;;;;;;5074955;28;20031;-82
2023/12/12 00:32:30;;;;;;;19.30;10.52;;;7.90;99.90;;;;;;5051980;28;20066;-84
2023/12/12 00:34:56;;;;;;;26.25;11.65;;;7.90;99.90;;;;;;5068084;28;20508;-84
2023/12/12 00:37:22;;;;;;;22.83;11.50;;;7.90;99.90;;;;;;5067217;28;20039;-82
2023/12/12 00:39:49;;;;;;;27.92;14.82;;;7.90;99.90;;;;;;5059455;28;20036;-78
2023/12/12 00:42:15;;;;;;;25.33;13.25;;;7.90;99.90;;;;;;5083956;28;20047;-82
2023/12/12 00:44:42;;;;;;;26.35;14.15;;;7.90;99.90;;;;;;5091524;28;20035;-82
2023/12/12 00:47:08;;;;;;;22.65;13.27;;;7.90;99.90;;;;;;5081076;28;20506;-81
2023/12/12 00:49:34;;;;;;;18.88;13.27;;;7.90;99.90;;;;;;5094281;27;20024;-82
2023/12/12 00:52:02;;;;;;;22.77;14.63;;;8.00;99.90;;;;;;5074087;28;20413;-82
2023/12/12 00:54:28;;;;;;;24.90;14.77;;;7.90;99.90;;;;;;5085692;28;20040;-82
2023/12/12 00:56:55;;;;;;;23.65;13.25;;;7.90;99.90;;;;;;5072374;28;20054;-82
2023/12/12 00:59:21;;;;;;;24.63;15.48;;;7.90;99.90;;;;;;5063966;28;20426;-79
2023/12/12 01:01:47;;;;;;;23.63;14.57;;;7.90;99.90;;;;;;5071965;28;20036;-82
2023/12/12 01:04:14;;;;;;;23.05;15.43;;;7.90;99.90;;;;;;5093378;28;20363;-81
2023/12/12 01:06:40;;;;;;;23.50;16.00;;;7.80;99.90;;;;;;5092943;28;20036;-83
2023/12/12 01:09:06;;;;;;;29.33;17.63;;;7.90;99.90;;;;;;5070283;28;20047;-82
2023/12/12 01:11:33;;;;;;;29.08;17.08;;;7.80;99.90;;;;;;5076318;28;20035;-83
2023/12/12 01:13:59;;;;;;;23.02;16.23;;;7.80;99.90;;;;;;5073544;28;20506;-83
2023/12/12 01:16:26;;;;;;;24.63;17.23;;;7.70;99.90;;;;;;5076003;28;20039;-80
2023/12/12 01:18:52;;;;;;;26.30;17.48;;;7.60;99.90;;;;;;5070919;28;20048;-83
2023/12/12 01:21:18;;;;;;;26.45;17.08;;;7.60;99.90;;;;;;5060174;28;20040;-82
2023/12/12 01:23:53;;;;;;;23.10;17.20;;;7.50;99.90;;;;;;5078222;28;20023;-82
2023/12/12 01:26:21;;;;;;;21.13;14.93;;;7.50;99.90;;;;;;5070976;28;20048;-81
2023/12/12 01:28:48;;;;;;;19.45;13.20;;;7.40;99.90;;;;;;5074115;28;20055;-82
2023/12/12 01:31:15;;;;;;;27.05;15.38;;;7.40;99.90;;;;;;5097540;28;20039;-81
2023/12/12 01:33:42;;;;;;;22.33;15.68;;;7.40;99.90;;;;;;5060620;28;20036;-82
2023/12/12 01:36:09;;;;;;;20.23;13.43;;;7.30;99.90;;;;;;5072884;28;20036;-83
2023/12/12 01:38:36;;;;;;;18.13;11.85;;;7.30;99.90;;;;;;5061929;28;20035;-82
2023/12/12 01:41:03;;;;;;;19.83;14.52;;;7.20;99.90;;;;;;5070064;28;20470;-80
2023/12/12 01:43:31;;;;;;;20.27;13.50;;;7.10;99.90;;;;;;5077273;28;20034;-82
2023/12/12 01:46:00;;;;;;;16.55;11.55;;;7.00;99.90;;;;;;5054176;28;20035;-80
2023/12/12 01:48:28;;;;;;;13.00;10.93;;;7.00;99.90;;;;;;5080156;27;20508;-82
2023/12/12 01:50:56;;;;;;;17.38;10.98;;;6.90;99.90;;;;;;5068358;28;20032;-82
2023/12/12 01:53:26;;;;;;;19.40;10.38;;;6.80;99.90;;;;;;5079666;27;20390;-81
2023/12/12 01:55:53;;;;;;;18.48;12.35;;;6.80;99.90;;;;;;5092641;28;20047;-81
2023/12/12 01:58:22;;;;;;;16.52;10.63;;;6.70;99.90;;;;;;5081589;28;20031;-81
2023/12/12 02:00:49;;;;;;;19.23;11.35;;;6.60;99.90;;;;;;5069840;28;20035;-81
2023/12/12 02:03:16;;;;;;;16.70;10.25;;;6.60;99.90;;;;;;5083468;28;20023;-81
2023/12/12 02:05:43;;;;;;;19.67;11.07;;;6.50;99.90;;;;;;5093258;28;20016;-81
2023/12/12 02:08:10;;;;;;;15.93;10.57;;;6.50;99.90;;;;;;5097321;28;20028;-81
2023/12/12 02:10:36;;;;;;;20.42;11.48;;;6.40;99.90;;;;;;5074489;28;20035;-81
2023/12/12 02:13:03;;;;;;;14.77;10.25;;;6.40;99.90;;;;;;5080631;28;20040;-83
2023/12/12 02:15:29;;;;;;;13.45;9.00;;;6.30;99.90;;;;;;5062010;28;20028;-82
2023/12/12 02:17:56;;;;;;;15.52;10.05;;;6.30;99.90;;;;;;5052632;28;20032;-82
2023/12/12 02:20:22;;;;;;;13.73;10.15;;;6.30;99.90;;;;;;5071962;28;20031;-82
2023/12/12 02:22:48;;;;;;;14.68;10.82;;;6.20;99.90;;;;;;5071572;28;20035;-82
2023/12/12 02:25:18;;;;;;;14.77;8.93;;;6.20;99.90;;;;;;5055078;28;20042;-81
2023/12/12 02:27:46;;;;;;;14.00;8.75;;;6.10;99.90;;;;;;5082332;28;20036;-81
2023/12/12 02:30:16;;;;;;;14.52;9.32;;;6.10;99.90;;;;;;5076484;28;20030;-82
2023/12/12 02:32:42;;;;;;;16.90;10.15;;;6.00;99.90;;;;;;5098568;27;20051;-82
2023/12/12 02:35:09;;;;;;;16.90;10.60;;;6.00;99.90;;;;;;5077654;28;20031;-82
2023/12/12 02:37:35;;;;;;;15.07;10.70;;;5.90;99.90;;;;;;5081620;28;20031;-80
2023/12/12 02:40:03;;;;;;;15.40;10.90;;;5.90;99.90;;;;;;5091252;28;20040;-82
2023/12/12 02:42:29;;;;;;;15.18;9.98;;;5.80;99.90;;;;;;5076004;28;20040;-82
2023/12/12 02:44:57;;;;;;;16.83;9.82;;;5.80;99.90;;;;;;5078678;28;20502;-81
2023/12/12 02:47:23;;;;;;;15.88;10.32;;;5.70;99.90;;;;;;5074839;28;20035;-82
2023/12/12 02:49:49;;;;;;;16.25;10.30;;;5.70;99.90;;;;;;5097100;28;20032;-83
2023/12/12 02:52:16;;;;;;;14.68;9.82;;;5.60;99.90;;;;;;5070729;28;20051;-81
2023/12/12 02:54:42;;;;;;;13.52;9.35;;;5.60;99.90;;;;;;5078851;28;20054;-80
2023/12/12 02:57:08;;;;;;;18.83;10.60;;;5.50;99.90;;;;;;5071601;28;20115;-82
2023/12/12 02:59:35;;;;;;;19.50;10.90;;;5.50;99.90;;;;;;5079017;28;20032;-83
2023/12/12 03:02:01;;;;;;;20.38;10.77;;;5.50;99.90;;;;;;5069944;28;20040;-82
2023/12/12 03:04:27;;;;;;;20.02;11.82;;;5.50;99.90;;;;;;5067378;28;20032;-83
2023/12/12 03:06:53;;;;;;;17.30;11.70;;;5.40;99.90;;;;;;5057348;28;20032;-82
2023/12/12 03:09:20;;;;;;;17.13;11.60;;;5.40;99.90;;;;;;5054018;28;20032;-82
2023/12/12 03:11:46;;;;;;;18.13;11.88;;;5.40;99.90;;;;;;5075378;28;20035;-80
2023/12/12 03:14:12;;;;;;;16.00;11.90;;;5.40;99.90;;;;;;5090734;28;20032;-81
2023/12/12 03:16:39;;;;;;;18.02;12.35;;;5.30;99.90;;;;;;5069087;28;20036;-81
2023/12/12 03:19:05;;;;;;;23.02;12.90;;;5.30;99.90;;;;;;5069896;28;20035;-83
2023/12/12 03:21:31;;;;;;;19.98;13.07;;;5.30;99.90;;;;;;5089893;28;20040;-82
2023/12/12 03:23:58;;;;;;;22.17;14.18;;;5.30;99.90;;;;;;5076699;28;20449;-82
2023/12/12 03:26:24;;;;;;;22.63;13.35;;;5.20;99.90;;;;;;5072308;28;20039;-82
2023/12/12 03:28:51;;;;;;;23.90;15.23;;;5.20;99.90;;;;;;5042949;28;20036;-82
2023/12/12 03:31:17;;;;;;;29.95;18.20;;;5.20;99.90;;;;;;5054752;28;20042;-82
2023/12/12 03:33:43;;;;;;;27.92;18.48;;;5.20;99.90;;;;;;5112156;27;20396;-80
2023/12/12 03:36:10;;;;;;;26.98;17.88;;;5.20;99.90;;;;;;5074038;28;20040;-81
2023/12/12 03:38:36;;;;;;;24.02;15.82;;;5.20;99.90;;;;;;5093239;28;20036;-82
2023/12/12 03:41:03;;;;;;;23.05;15.27;;;5.20;99.90;;;;;;5111043;27;20023;-81
2023/12/12 03:43:29;;;;;;;24.55;16.55;;;5.20;99.90;;;;;;5067768;28;20040;-81
2023/12/12 03:45:55;;;;;;;22.98;15.98;;;5.10;99.90;;;;;;5075201;28;20047;-81
2023/12/12 03:48:21;;;;;;;24.90;15.45;;;5.10;99.90;;;;;;5068509;28;20028;-80
2023/12/12 03:50:49;;;;;;;22.85;15.23;;;5.10;99.90;;;;;;5070136;28;20051;-81
2023/12/12 03:53:16;;;;;;;23.17;14.70;;;5.10;99.90;;;;;;5051354;28;20040;-83
2023/12/12 03:55:42;;;;;;;19.92;13.65;;;5.10;99.90;;;;;;5056400;28;20048;-82
2023/12/12 03:58:08;;;;;;;19.98;13.63;;;5.00;99.90;;;;;;5073943;28;20036;-82
2023/12/12 04:00:35;;;;;;;21.63;12.88;;;5.00;99.90;;;;;;5082813;28;20032;-81
2023/12/12 04:03:01;;;;;;;20.23;13.63;;;5.00;99.90;;;;;;5084252;28;20040;-79
2023/12/12 04:05:27;;;;;;;20.90;13.23;;;4.90;99.90;;;;;;5071541;28;20034;-82
2023/12/12 04:07:54;;;;;;;18.80;13.23;;;4.90;99.90;;;;;;5070171;28;20494;-80
2023/12/12 04:10:20;;;;;;;21.38;13.68;;;4.90;99.90;;;;;;5077839;28;20052;-81
2023/12/12 04:12:46;;;;;;;18.08;12.85;;;4.90;99.90;;;;;;5090161;28;20056;-81
2023/12/12 04:15:13;;;;;;;18.50;12.32;;;4.80;99.90;;;;;;5070744;28;20039;-81
2023/12/12 04:17:39;;;;;;;20.65;13.82;;;4.80;99.90;;;;;;5077130;28;20043;-81
2023/12/12 04:20:06;;;;;;;26.70;16.52;;;4.80;99.90;;;;;;5074094;28;20526;-81
2023/12/12 04:22:32;;;;;;;23.95;15.98;;;4.80;99.90;;;;;;5084859;28;20051;-81
2023/12/12 04:24:59;;;;;;;20.98;14.55;;;4.80;99.90;;;;;;5072504;28;20062;-82
2023/12/12 04:27:25;;;;;;;21.10;14.57;;;4.80;99.90;;;;;;5099710;28;20497;-82
2023/12/12 04:29:51;;;;;;;26.85;16.00;;;4.70;99.90;;;;;;5074923;28;20028;-82
2023/12/12 04:32:17;;;;;;;24.42;14.82;;;4.70;99.90;;;;;;5080210;28;20043;-81
2023/12/12 04:34:45;;;;;;;27.45;18.55;;;4.70;99.90;;;;;;5065867;28;20035;-82
2023/12/12 04:37:11;;;;;;;28.10;16.80;;;4.70;99.90;;;;;;5073911;28;20039;-82
2023/12/12 04:39:38;;;;;;;27.73;15.90;;;4.80;99.90;;;;;;5073487;28;20028;-82
2023/12/12 04:42:05;;;;;;;28.83;16.23;;;4.80;99.90;;;;;;5080564;28;20040;-81
2023/12/12 04:44:31;;;;;;;21.60;14.63;;;4.80;99.90;;;;;;5075025;28;20036;-82
2023/12/12 04:46:57;;;;;;;26.73;16.23;;;4.80;99.90;;;;;;5087846;28;20040;-80
2023/12/12 04:49:24;;;;;;;25.58;16.33;;;4.90;99.90;;;;;;5094240;28;20040;-80
2023/12/12 04:51:50;;;;;;;25.55;16.63;;;4.90;99.90;;;;;;5078446;28;20063;-81
2023/12/12 04:54:16;;;;;;;26.23;16.30;;;4.90;99.90;;;;;;5073406;27;20402;-82
2023/12/12 04:56:43;;;;;;;25.40;15.15;;;4.90;99.90;;;;;;5076989;28;20039;-82
2023/12/12 04:59:09;;;;;;;28.15;16.50;;;5.00;99.90;;;;;;5072884;28;20043;-79
2023/12/12 05:01:35;;;;;;;29.83;17.15;;;5.00;99.90;;;;;;5075600;28;20039;-81
2023/12/12 05:04:03;;;;;;;23.00;17.10;;;5.10;99.90;;;;;;5079627;28;20036;-82
2023/12/12 05:06:29;;;;;;;29.70;17.48;;;5.10;99.90;;;;;;5076014;28;20024;-82
2023/12/12 05:08:56;;;;;;;26.30;17.55;;;5.20;99.90;;;;;;5098184;28;20039;-81
2023/12/12 05:11:22;;;;;;;26.55;16.65;;;5.20;99.90;;;;;;5062291;28;20713;-83
2023/12/12 05:13:48;;;;;;;25.75;16.98;;;5.20;99.90;;;;;;5059778;28;20047;-81
2023/12/12 05:16:15;;;;;;;27.73;16.40;;;5.20;99.90;;;;;;5093377;28;20531;-81
2023/12/12 05:18:41;;;;;;;32.40;16.67;;;5.20;99.90;;;;;;5087606;28;20066;-82
2023/12/12 05:21:08;;;;;;;27.73;16.67;;;5.10;99.90;;;;;;5072558;28;20413;-82
2023/12/12 05:23:34;;;;;;;26.40;16.25;;;5.20;99.90;;;;;;5073032;28;20394;-80
2023/12/12 05:26:01;;;;;;;26.45;14.80;;;5.10;99.90;;;;;;5095586;28;20050;-81
2023/12/12 05:28:27;;;;;;;28.10;15.90;;;5.10;99.90;;;;;;5091149;28;20051;-82
2023/12/12 05:30:54;;;;;;;20.45;12.85;;;5.10;99.90;;;;;;5073744;28;20048;-82
2023/12/12 05:33:20;;;;;;;25.08;13.90;;;5.00;99.90;;;;;;5071450;28;20402;-81
2023/12/12 05:35:48;;;;;;;22.35;13.57;;;4.90;99.90;;;;;;5092083;28;20485;-82
2023/12/12 05:38:15;;;;;;;23.00;13.75;;;4.90;99.90;;;;;;5083085;28;20035;-82
2023/12/12 05:40:41;;;;;;;22.45;13.63;;;4.90;99.90;;;;;;5076493;27;20386;-82
2023/12/12 05:43:08;;;;;;;18.85;11.90;;;4.80;99.90;;;;;;5074939;28;20036;-82
2023/12/12 05:45:34;;;;;;;22.88;13.00;;;4.80;99.90;;;;;;5081486;28;20047;-80
2023/12/12 05:48:03;;;;;;;23.75;13.85;;;4.70;99.90;;;;;;5077897;28;20042;-82
2023/12/12 05:50:30;;;;;;;20.48;12.82;;;4.70;99.90;;;;;;5077841;28;20039;-81
2023/12/12 05:52:57;;;;;;;24.83;14.35;;;4.70;99.90;;;;;;5078208;28;20486;-80
2023/12/12 05:55:23;;;;;;;25.08;15.00;;;4.70;99.90;;;;;;5076435;28;20409;-81
2023/12/12 05:57:49;;;;;;;21.25;13.15;;;4.70;99.90;;;;;;5080639;28;20035;-82
2023/12/12 06:00:16;;;;;;;23.85;14.10;;;4.70;99.90;;;;;;5077739;28;20036;-81
2023/12/12 06:02:42;;;;;;;25.20;14.80;;;4.80;99.90;;;;;;5079715;28;20223;-81
2023/12/12 06:05:10;;;;;;;31.92;15.93;;;4.80;99.90;;;;;;5079118;28;20409;-80
2023/12/12 06:07:37;;;;;;;22.20;14.02;;;4.80;99.90;;;;;;5081920;28;20350;-82
2023/12/12 06:10:08;;;;;;;21.55;14.85;;;4.80;99.90;;;;;;5074117;28;20120;-80
2023/12/12 06:12:35;;;;;;;26.25;14.15;;;4.80;99.90;;;;;;5062641;27;20508;-81
2023/12/12 06:15:02;;;;;;;22.92;13.48;;;4.80;99.90;;;;;;5075370;28;20518;-81
2023/12/12 06:17:30;;;;;;;25.88;14.40;;;4.80;99.90;;;;;;5072897;28;20039;-81
2023/12/12 06:19:56;;;;;;;22.45;15.68;;;4.80;99.90;;;;;;5059076;28;20394;-80
2023/12/12 06:22:23;;;;;;;36.90;19.60;;;4.90;99.90;;;;;;5078161;28;20485;-80
2023/12/12 06:24:51;;;;;;;34.08;18.35;;;5.00;99.90;;;;;;5075367;28;20036;-81
2023/12/12 06:27:17;;;;;;;34.25;18.95;;;5.10;99.90;;;;;;5072593;27;20383;-81
2023/12/12 06:29:44;;;;;;;32.72;19.67;;;5.20;99.90;;;;;;5069775;28;20035;-81
2023/12/12 06:32:10;;;;;;;28.95;18.73;;;5.30;99.90;;;;;;5071349;28;20035;-81
2023/12/12 06:34:36;;;;;;;32.85;18.95;;;5.40;99.90;;;;;;5072143;28;20043;-81
2023/12/12 06:37:03;;;;;;;36.05;20.27;;;5.40;99.90;;;;;;5091161;28;20040;-81
2023/12/12 06:39:29;;;;;;;37.83;21.38;;;5.50;99.90;;;;;;5087978;28;20032;-79
2023/12/12 06:41:55;;;;;;;35.53;20.83;;;5.60;99.90;;;;;;5096966;27;20039;-81
2023/12/12 06:44:22;;;;;;;43.28;21.10;;;5.60;99.90;;;;;;5057634;28;20065;-80
2023/12/12 06:46:48;;;;;;;39.53;22.15;;;5.70;99.90;;;;;;5091485;28;20573;-82
2023/12/12 06:49:14;;;;;;;41.42;20.30;;;5.70;99.90;;;;;;5073669;28;20054;-78
2023/12/12 06:51:41;;;;;;;42.00;22.25;;;5.80;99.90;;;;;;5098737;28;20028;-82
2023/12/12 06:54:07;;;;;;;39.15;21.48;;;5.80;99.90;;;;;;5068440;28;20036;-80
2023/12/12 06:56:34;;;;;;;44.50;20.95;;;5.90;99.90;;;;;;5083478;28;20028;-83
2023/12/12 06:59:00;;;;;;;44.35;19.95;;;5.90;99.90;;;;;;5085567;28;20325;-80
2023/12/12 07:01:26;;;;;;;59.35;26.95;;;5.90;99.90;;;;;;5066655;28;20031;-82
2023/12/12 07:03:53;;;;;;;48.70;22.25;;;6.00;99.90;;;;;;5068614;28;20051;-81
2023/12/12 07:06:19;;;;;;;37.95;19.67;;;6.00;99.90;;;;;;5102373;28;20034;-84
2023/12/12 07:08:45;;;;;;;48.53;19.70;;;6.00;99.90;;;;;;5068619;28;20042;-85
2023/12/12 07:11:12;;;;;;;54.25;21.63;;;6.10;99.90;;;;;;5068748;28;20035;-82
2023/12/12 07:13:38;;;;;;;43.30;19.95;;;6.10;99.90;;;;;;5067124;28;20035;-83
2023/12/12 07:16:04;;;;;;;51.22;22.10;;;6.10;99.90;;;;;;5084059;28;20390;-83
2023/12/12 07:18:31;;;;;;;40.08;19.30;;;6.10;99.90;;;;;;5083823;28;20038;-80
2023/12/12 07:21:00;;;;;;;41.60;18.35;;;6.20;99.90;;;;;;5076097;28;20046;-82
2023/12/12 07:23:27;;;;;;;46.90;19.48;;;6.20;99.90;;;;;;5066722;28;20396;-81
2023/12/12 07:25:53;;;;;;;49.38;21.23;;;6.20;99.90;;;;;;5051701;28;20383;-80
2023/12/12 07:28:20;;;;;;;48.78;20.10;;;6.20;99.90;;;;;;5084959;28;20251;-82
2023/12/12 07:30:47;;;;;;;46.03;20.88;;;6.20;99.90;;;;;;5100539;28;20028;-81
2023/12/12 07:33:13;;;;;;;38.63;18.55;;;6.30;99.90;;;;;;5065717;28;20344;-84
2023/12/12 07:35:40;;;;;;;41.28;19.08;;;6.40;99.90;;;;;;5083660;28;20031;-82
2023/12/12 07:38:06;;;;;;;43.75;18.40;;;6.40;99.90;;;;;;5085929;28;20032;-82
2023/12/12 07:40:32;;;;;;;44.30;18.48;;;6.40;99.90;;;;;;5085154;28;20032;-81
2023/12/12 07:42:59;;;;;;;48.55;19.67;;;6.40;99.90;;;;;;5085953;28;20059;-79
2023/12/12 07:45:26;;;;;;;42.53;18.73;;;6.40;99.90;;;;;;5053069;28;20034;-81
2023/12/12 07:47:52;;;;;;;43.80;17.90;;;6.50;99.90;;;;;;5102856;28;20505;-81
2023/12/12 07:50:19;;;;;;;46.70;19.55;;;6.50;99.90;;;;;;5085549;28;20035;-82
2023/12/12 07:52:47;;;;;;;38.97;17.75;;;6.50;99.90;;;;;;5105375;28;20035;-81
2023/12/12 07:55:14;;;;;;;43.03;20.10;;;6.50;99.90;;;;;;5091706;28;20031;-81
2023/12/12 07:57:41;;;;;;;40.30;18.23;;;6.50;99.90;;;;;;5060492;28;20038;-82
2023/12/12 08:00:10;;;;;;;45.42;18.05;;;6.60;99.90;;;;;;5075099;28;20031;-81
2023/12/12 08:02:38;;;;;;;39.35;18.17;;;6.60;99.90;;;;;;5057232;28;20035;-83
2023/12/12 08:05:06;;;;;;;39.22;17.50;;;6.60;99.90;;;;;;5073320;28;20058;-81
2023/12/12 08:07:32;;;;;;;44.50;18.25;;;6.70;99.90;;;;;;5074046;28;20027;-82
2023/12/12 08:09:58;;;;;;;48.88;21.38;;;6.70;99.90;;;;;;5078907;28;20686;-82
2023/12/12 08:12:25;;;;;;;50.13;20.83;;;6.70;99.90;;;;;;5056411;28;20035;-81
2023/12/12 08:14:55;;;;;;;41.20;19.33;;;6.80;99.90;;;;;;5062196;28;20042;-81
2023/12/12 08:17:21;;;;;;;45.65;18.25;;;6.90;99.90;;;;;;5072429;28;20035;-83
2023/12/12 08:19:48;;;;;;;47.67;21.90;;;6.90;99.90;;;;;;5073526;28;20699;-81
2023/12/12 08:22:14;;;;;;;43.08;18.95;;;7.00;99.90;;;;;;5088543;28;20517;-81
2023/12/12 08:24:40;;;;;;;49.08;21.02;;;7.00;99.90;;;;;;5089183;28;20031;-81
2023/12/12 08:27:07;;;;;;;37.17;18.77;;;7.00;99.90;;;;;;5089754;28;20383;-78
2023/12/12 08:29:33;;;;;;;42.83;19.58;;;7.10;99.90;;;;;;5089015;28;20964;-80
2023/12/12 08:32:00;;;;;;;45.53;20.58;;;7.10;99.90;;;;;;5055881;28;20051;-80
2023/12/12 08:34:26;;;;;;;43.58;19.15;;;7.10;99.90;;;;;;5089732;28;20479;-80
2023/12/12 08:36:52;;;;;;;42.55;19.67;;;7.20;99.90;;;;;;5087506;28;20602;-82
2023/12/12 08:39:19;;;;;;;54.40;22.90;;;7.20;99.90;;;;;;5097021;28;20024;-80
2023/12/12 08:41:45;;;;;;;49.30;23.52;;;7.20;99.90;;;;;;5071903;28;20378;-80
2023/12/12 08:44:11;;;;;;;56.95;24.40;;;7.20;99.90;;;;;;5088500;28;20405;-80
2023/12/12 08:46:38;;;;;;;53.15;23.52;;;7.20;99.90;;;;;;5087354;28;20028;-81
2023/12/12 08:49:04;;;;;;;51.35;23.20;;;7.20;99.90;;;;;;5072649;28;20058;-82
2023/12/12 08:51:31;;;;;;;55.03;24.67;;;7.20;99.90;;;;;;5071918;28;20489;-79
2023/12/12 08:54:01;;;;;;;61.92;23.95;;;7.30;99.90;;;;;;5088068;28;20032;-82
2023/12/12 08:56:27;;;;;;;48.88;22.58;;;7.30;99.90;;;;;;5073060;28;20398;-81
2023/12/12 08:58:55;;;;;;;54.45;22.75;;;7.30;99.90;;;;;;5072948;28;20043;-81
2023/12/12 09:01:21;;;;;;;60.90;24.63;;;7.30;99.90;;;;;;5072857;28;20549;-82
2023/12/12 09:03:47;;;;;;;73.78;29.38;;;7.40;99.90;;;;;;5086615;28;20039;-80
2023/12/12 09:06:14;;;;;;;65.05;28.58;;;7.40;99.90;;;;;;5072295;28;20028;-79
2023/12/12 09:08:42;;;;;;;61.13;27.00;;;7.40;99.90;;;;;;5054852;28;20422;-79
2023/12/12 09:11:12;;;;;;;57.33;25.58;;;7.40;99.90;;;;;;5055791;28;20035;-80
2023/12/12 09:13:41;;;;;;;48.90;23.88;;;7.50;99.90;;;;;;5087152;28;20530;-80
2023/12/12 09:16:08;;;;;;;43.40;21.48;;;7.50;99.90;;;;;;5088290;28;20035;-80
2023/12/12 09:18:34;;;;;;;54.72;24.77;;;7.50;99.90;;;;;;5088156;28;20043;-80
2023/12/12 09:21:01;;;;;;;65.05;27.08;;;7.50;99.90;;;;;;5072295;28;20046;-80
2023/12/12 09:23:30;;;;;;;46.88;23.23;;;7.50;99.90;;;;;;5070222;28;20040;-79
2023/12/12 09:25:57;;;;;;;51.72;24.05;;;7.60;99.90;;;;;;5087815;28;20030;-80
2023/12/12 09:28:23;;;;;;;65.88;27.50;;;7.60;99.90;;;;;;5088931;28;20044;-80
2023/12/12 09:30:49;;;;;;;50.60;23.88;;;7.60;99.90;;;;;;5088152;28;20557;-81
2023/12/12 09:33:16;;;;;;;53.78;24.13;;;7.60;99.90;;;;;;5087270;28;20470;-81
2023/12/12 09:35:42;;;;;;;70.15;27.48;;;7.70;99.90;;;;;;5105307;28;20027;-82
2023/12/12 09:38:09;;;;;;;54.53;25.02;;;7.60;99.90;;;;;;5070893;28;20036;-79
2023/12/12 09:40:36;;;;;;;55.28;25.15;;;7.70;99.90;;;;;;5070809;28;20030;-79
2023/12/12 09:43:03;;;;;;;58.42;23.83;;;7.70;99.90;;;;;;5070928;28;20226;-77
2023/12/12 09:45:31;;;;;;;45.53;21.98;;;7.80;99.90;;;;;;5072041;28;20031;-82
2023/12/12 09:47:58;;;;;;;47.58;22.65;;;7.80;99.90;;;;;;5071767;27;20040;-81
2023/12/12 09:50:26;;;;;;;51.45;24.15;;;7.80;99.90;;;;;;5071422;28;20031;-81
2023/12/12 09:52:53;;;;;;;60.05;24.02;;;7.90;99.90;;;;;;5086663;28;20044;-80
2023/12/12 09:55:24;;;;;;;47.95;21.95;;;7.90;99.90;;;;;;5104044;28;20038;-80
2023/12/12 09:57:50;;;;;;;53.90;24.17;;;8.00;99.90;;;;;;5070246;28;20494;-80
2023/12/12 10:00:18;;;;;;;62.42;26.27;;;8.00;99.90;;;;;;5071244;28;20038;-81
2023/12/12 10:02:45;;;;;;;52.95;24.67;;;8.00;99.90;;;;;;5087828;28;20043;-78
2023/12/12 10:05:12;;;;;;;54.20;22.42;;;8.10;99.90;;;;;;5087578;28;20023;-80
2023/12/12 10:07:40;;;;;;;42.28;20.75;;;8.10;99.90;;;;;;5104690;28;20020;-81
2023/12/12 10:10:12;;;;;;;52.45;23.17;;;8.20;99.90;;;;;;5104829;28;20050;-80
2023/12/12 10:12:38;;;;;;;43.38;21.52;;;8.30;99.90;;;;;;5085830;28;20058;-81
2023/12/12 10:15:27;;;;;;;51.90;22.80;;;8.30;99.90;;;;;;5054474;28;20032;-78
2023/12/12 10:17:58;;;;;;;55.60;24.52;;;8.40;99.90;;;;;;5087819;28;20040;-81
2023/12/12 10:20:31;;;;;;;53.15;23.38;;;8.50;99.90;;;;;;5069659;28;20244;-82
2023/12/12 10:23:02;;;;;;;51.88;21.70;;;8.50;99.90;;;;;;5087084;28;20039;-80
2023/12/12 10:25:30;;;;;;;49.53;21.33;;;8.50;99.90;;;;;;5085192;28;20027;-82
2023/12/12 10:28:00;;;;;;;43.50;20.48;;;8.60;99.90;;;;;;5102985;28;20043;-80
2023/12/12 10:30:27;;;;;;;42.10;20.17;;;8.70;99.90;;;;;;5054224;28;20482;-81
2023/12/12 10:32:54;;;;;;;36.08;18.40;;;8.70;99.90;;;;;;5085088;28;20034;-81
2023/12/12 10:35:22;;;;;;;43.85;19.90;;;8.70;99.90;;;;;;5068651;28;20478;-82
2023/12/12 10:37:52;;;;;;;42.65;19.08;;;8.80;99.90;;;;;;5070807;28;20371;-82
2023/12/12 10:40:23;;;;;;;43.22;19.48;;;8.80;99.90;;;;;;5053424;28;20024;-80
2023/12/12 10:42:50;;;;;;;44.97;18.92;;;8.90;99.90;;;;;;5069908;28;20051;-81
2023/12/12 10:45:18;;;;;;;45.88;19.00;;;9.00;99.90;;;;;;5070844;28;20050;-82
2023/12/12 10:47:50;;;;;;;38.58;17.65;;;9.10;99.90;;;;;;5069679;28;20363;-81
2023/12/12 10:50:17;;;;;;;44.35;19.25;;;9.20;99.90;;;;;;5075467;28;20143;-81
2023/12/12 10:52:48;;;;;;;40.92;17.52;;;9.30;99.90;;;;;;5083946;28;20046;-81
2023/12/12 10:55:16;;;;;;;40.50;17.05;;;9.30;99.90;;;;;;5085637;28;20035;-80
2023/12/12 10:57:44;;;;;;;36.80;16.70;;;9.40;99.90;;;;;;5070682;28;21242;-81
2023/12/12 11:00:14;;;;;;;47.90;17.85;;;9.50;99.90;;;;;;5102203;28;20474;-81
2023/12/12 11:02:41;;;;;;;38.00;17.45;;;9.50;99.90;;;;;;5085693;28;20051;-83
2023/12/12 11:05:10;;;;;;;32.80;16.15;;;9.50;99.90;;;;;;5085837;28;20032;-82
2023/12/12 11:07:38;;;;;;;34.25;15.52;;;9.60;99.90;;;;;;5084848;28;20026;-83
2023/12/12 11:10:10;;;;;;;37.08;16.60;;;9.60;99.90;;;;;;5086087;28;20031;-81
2023/12/12 11:12:51;;;;;;;43.58;17.15;;;9.70;99.90;;;;;;5086978;28;20372;-85
2023/12/12 11:15:20;;;;;;;55.63;18.75;;;9.70;99.90;;;;;;5069347;28;20470;-84
2023/12/12 11:17:47;;;;;;;43.22;19.95;;;9.80;99.90;;;;;;5070062;28;20031;-83
2023/12/12 11:20:15;;;;;;;48.95;18.95;;;9.80;99.90;;;;;;5085452;28;20027;-83
2023/12/12 11:22:48;;;;;;;38.58;16.50;;;9.80;99.90;;;;;;5084683;28;20027;-82
2023/12/12 11:25:17;;;;;;;31.27;14.70;;;9.90;99.90;;;;;;5054392;28;20042;-83
2023/12/12 11:27:47;;;;;;;30.00;13.90;;;10.00;99.90;;;;;;5069489;28;20015;-83
2023/12/12 11:30:16;;;;;;;41.17;17.10;;;10.00;99.90;;;;;;5102567;28;20035;-79
2023/12/12 11:32:43;;;;;;;34.55;16.33;;;10.10;99.90;;;;;;5066776;28;20028;-82
2023/12/12 11:35:32;;;;;;;43.13;16.65;;;10.10;99.90;;;;;;5085996;28;20040;-82
2023/12/12 11:38:28;;;;;;;36.20;16.27;;;10.10;99.90;;;;;;5053523;28;20030;-83
2023/12/12 11:41:14;;;;;;;47.25;16.67;;;10.30;99.90;;;;;;5075926;28;20027;-80
2023/12/12 11:43:41;;;;;;;41.15;14.68;;;10.40;99.90;;;;;;5093999;28;20159;-82
2023/12/12 11:46:23;;;;;;;28.73;12.50;;;10.40;99.90;;;;;;5090089;28;20031;-83
2023/12/12 11:48:49;;;;;;;36.05;12.18;;;10.40;99.90;;;;;;5069879;28;20035;-82
2023/12/12 11:51:42;;;;;;;32.08;11.15;;;10.40;99.90;;;;;;5068983;28;20031;-81
2023/12/12 11:54:22;;;;;;;33.50;12.43;;;10.30;99.90;;;;;;5069036;28;20051;-83
2023/12/12 11:56:57;;;;;;;30.65;10.48;;;10.30;99.90;;;;;;5060675;28;20043;-79
2023/12/12 11:59:25;;;;;;;34.17;10.98;;;10.30;99.90;;;;;;5052268;28;20339;-80
2023/12/12 12:01:52;;;;;;;28.38;9.15;;;10.30;99.90;;;;;;5052657;28;20055;-84
2023/12/12 12:04:21;;;;;;;30.08;9.30;;;10.30;99.90;;;;;;5068025;28;20506;-82
2023/12/12 12:06:49;;;;;;;23.60;9.05;;;10.40;99.90;;;;;;5053322;28;20036;-82
2023/12/12 12:09:16;;;;;;;27.27;8.57;;;10.40;99.90;;;;;;5091273;28;20038;-81
2023/12/12 12:11:49;;;;;;;24.23;8.77;;;10.40;99.90;;;;;;5062261;28;20024;-80
2023/12/12 12:14:21;;;;;;;25.08;8.00;;;10.50;99.90;;;;;;5060710;28;20032;-81
2023/12/12 12:16:53;;;;;;;24.50;7.30;;;10.40;99.90;;;;;;5083325;28;20482;-81
2023/12/12 12:19:31;;;;;;;23.27;8.55;;;10.40;99.90;;;;;;5082298;28;20032;-81
2023/12/12 12:22:09;;;;;;;26.27;8.63;;;10.40;99.90;;;;;;5077533;28;20039;-81
2023/12/12 12:24:45;;;;;;;18.70;6.80;;;10.40;99.90;;;;;;5095653;28;20282;-80
2023/12/12 12:27:12;;;;;;;23.45;7.40;;;10.40;99.90;;;;;;5049925;28;20039;-80
2023/12/12 12:29:39;;;;;;;19.65;7.07;;;10.50;99.90;;;;;;5088590;28;20032;-81
2023/12/12 12:32:13;;;;;;;23.92;6.15;;;10.60;99.90;;;;;;5061416;28;20028;-80
2023/12/12 12:34:40;;;;;;;21.20;6.63;;;10.70;99.90;;;;;;5074704;28;20028;-81
2023/12/12 12:37:06;;;;;;;20.73;7.03;;;10.70;99.90;;;;;;5091680;28;20043;-81
2023/12/12 12:39:43;;;;;;;16.58;6.25;;;10.70;99.90;;;;;;5084447;28;20043;-81